createdAt,value
2023-02-27T00:01:20.221Z,0.40
2023-02-27T00:03:47.403Z,0.30
2023-02-27T00:06:16.167Z,0.40
2023-02-27T00:08:44.089Z,0.40
2023-02-27T00:11:11.092Z,0.40
2023-02-27T00:13:38.307Z,0.30
2023-02-27T00:16:06.344Z,0.20
2023-02-27T00:18:33.315Z,0.10
2023-02-27T00:21:00.541Z,0.20
2023-02-27T00:23:30.258Z,0.20
2023-02-27T00:26:01.199Z,0.10
2023-02-27T00:28:28.710Z,0.20
2023-02-27T00:30:56.241Z,0.10
2023-02-27T00:33:23.740Z,0.10
2023-02-27T00:36:00.402Z,0.10
2023-02-27T00:38:28.916Z,0.00
2023-02-27T00:40:56.087Z,-0.10
2023-02-27T00:43:23.002Z,0.00
2023-02-27T00:45:50.206Z,0.00
2023-02-27T00:48:20.344Z,-0.10
2023-02-27T00:50:49.077Z,0.00
2023-02-27T00:53:16.178Z,-0.10
2023-02-27T00:55:43.856Z,-0.20
2023-02-27T00:58:10.826Z,-0.20
2023-02-27T01:00:38.081Z,-0.20
2023-02-27T01:03:05.190Z,-0.10
2023-02-27T01:05:32.405Z,-0.10
2023-02-27T01:07:59.775Z,-0.20
2023-02-27T01:10:26.858Z,-0.10
2023-02-27T01:12:53.918Z,-0.10
2023-02-27T01:15:23.682Z,-0.10
2023-02-27T01:17:51.451Z,-0.20
2023-02-27T01:20:21.867Z,-0.20
2023-02-27T01:22:49.086Z,-0.20
2023-02-27T01:25:18.684Z,-0.20
2023-02-27T01:27:45.535Z,-0.10
2023-02-27T01:30:15.099Z,-0.20
2023-02-27T01:32:42.936Z,-0.20
2023-02-27T01:35:13.441Z,-0.20
2023-02-27T01:37:42.520Z,-0.20
2023-02-27T01:40:10.864Z,-0.30
2023-02-27T01:42:38.100Z,-0.40
2023-02-27T01:45:34.248Z,-0.30
2023-02-27T01:48:33.447Z,-0.30
2023-02-27T01:51:16.742Z,-0.30
2023-02-27T01:53:50.953Z,-0.30
2023-02-27T01:56:30.276Z,-0.40
2023-02-27T01:59:09.802Z,-0.30
2023-02-27T02:01:39.056Z,-0.40
2023-02-27T02:04:39.164Z,-0.30
2023-02-27T02:07:15.004Z,-0.40
2023-02-27T02:09:54.587Z,-0.40
2023-02-27T02:12:34.484Z,-0.20
2023-02-27T02:15:08.552Z,-0.30
2023-02-27T02:17:50.069Z,-0.40
2023-02-27T02:20:54.743Z,-0.40
2023-02-27T02:24:27.436Z,-0.40
2023-02-27T02:27:26.931Z,-0.40
2023-02-27T02:30:38.487Z,-0.40
2023-02-27T02:33:48.674Z,-0.50
2023-02-27T02:36:40.580Z,-0.50
2023-02-27T02:39:23.813Z,-0.40
2023-02-27T02:42:35.134Z,-0.40
2023-02-27T02:45:26.930Z,-0.50
2023-02-27T02:48:47.571Z,-0.50
2023-02-27T02:51:55.112Z,-0.50
2023-02-27T02:54:48.553Z,-0.50
2023-02-27T02:57:59.393Z,-0.50
2023-02-27T03:00:41.318Z,-0.40
2023-02-27T03:03:35.391Z,-0.50
2023-02-27T03:06:27.969Z,-0.50
2023-02-27T03:09:35.900Z,-0.50
2023-02-27T03:12:10.273Z,-0.50
2023-02-27T03:14:53.271Z,-0.60
2023-02-27T03:17:50.029Z,-0.60
2023-02-27T03:20:30.954Z,-0.60
2023-02-27T03:23:11.715Z,-0.60
2023-02-27T03:25:46.124Z,-0.50
2023-02-27T03:28:26.792Z,-0.60
2023-02-27T03:31:11.981Z,-0.50
2023-02-27T03:34:02.903Z,-0.60
2023-02-27T03:36:53.871Z,-0.60
2023-02-27T03:39:54.044Z,-0.60
2023-02-27T03:42:38.558Z,-0.60
2023-02-27T03:45:50.754Z,-0.50
2023-02-27T03:48:17.830Z,-0.50
2023-02-27T03:50:45.153Z,-0.50
2023-02-27T03:53:49.884Z,-0.30
2023-02-27T03:56:28.266Z,-0.30
2023-02-27T03:58:56.015Z,-0.30
2023-02-27T04:01:23.598Z,0.10
2023-02-27T04:04:02.781Z,0.30
2023-02-27T04:06:51.521Z,0.50
2023-02-27T04:09:33.324Z,0.50
2023-02-27T04:12:37.469Z,0.20
2023-02-27T04:16:00.673Z,0.00
2023-02-27T04:19:11.531Z,-0.30
2023-02-27T04:22:35.095Z,-0.10
2023-02-27T04:25:29.757Z,0.20
2023-02-27T04:28:14.233Z,0.10
2023-02-27T04:31:27.208Z,0.20
2023-02-27T04:34:12.040Z,0.50
2023-02-27T04:36:57.892Z,0.60
2023-02-27T04:39:34.537Z,0.60
2023-02-27T04:42:24.084Z,0.70
2023-02-27T04:45:01.056Z,0.40
2023-02-27T04:47:40.142Z,0.20
2023-02-27T04:50:19.756Z,0.10
2023-02-27T04:53:04.661Z,0.20
2023-02-27T04:55:50.294Z,0.40
2023-02-27T04:58:36.605Z,0.30
2023-02-27T05:01:37.205Z,0.50
2023-02-27T05:04:18.491Z,0.40
2023-02-27T05:06:54.399Z,-0.10
2023-02-27T05:09:49.694Z,-0.20
2023-02-27T05:12:51.397Z,-0.50
2023-02-27T05:15:43.001Z,-0.80
2023-02-27T05:18:17.008Z,-0.90
2023-02-27T05:21:31.205Z,-0.90
2023-02-27T05:25:12.509Z,-0.80
2023-02-27T05:27:58.209Z,-0.90
2023-02-27T05:30:53.212Z,-0.90
2023-02-27T05:33:51.881Z,-0.90
2023-02-27T05:36:38.416Z,-0.90
2023-02-27T05:39:11.208Z,-0.70
2023-02-27T05:41:52.940Z,-0.80
2023-02-27T05:44:35.928Z,-0.90
2023-02-27T05:47:16.952Z,-1.10
2023-02-27T05:50:07.677Z,-1.10
2023-02-27T05:52:38.540Z,-1.10
2023-02-27T05:55:23.025Z,-1.10
2023-02-27T05:58:35.233Z,-1.00
2023-02-27T06:01:08.036Z,-1.00
2023-02-27T06:03:38.589Z,-1.00
2023-02-27T06:06:17.250Z,-1.10
2023-02-27T06:08:46.276Z,-1.20
2023-02-27T06:11:13.576Z,-1.20
2023-02-27T06:13:42.127Z,-1.20
2023-02-27T06:16:14.842Z,-1.30
2023-02-27T06:18:42.165Z,-1.30
2023-02-27T06:21:09.139Z,-1.20
2023-02-27T06:23:36.439Z,-1.10
2023-02-27T06:26:03.408Z,-1.20
2023-02-27T06:28:31.839Z,-1.30
2023-02-27T06:30:58.870Z,-1.30
2023-02-27T06:33:26.699Z,-1.30
2023-02-27T06:35:53.689Z,-1.20
2023-02-27T06:38:21.146Z,-1.30
2023-02-27T06:40:48.279Z,-1.30
2023-02-27T06:43:15.649Z,-1.30
2023-02-27T06:45:42.968Z,-1.40
2023-02-27T06:48:12.661Z,-1.40
2023-02-27T06:50:39.560Z,-1.20
2023-02-27T06:53:09.635Z,-1.10
2023-02-27T06:55:36.596Z,-1.10
2023-02-27T06:58:03.535Z,-1.00
2023-02-27T07:00:31.740Z,-1.10
2023-02-27T07:02:58.742Z,-1.30
2023-02-27T07:05:28.778Z,-1.20
2023-02-27T07:07:58.823Z,-1.30
2023-02-27T07:10:26.182Z,-1.30
2023-02-27T07:12:57.274Z,-1.30
2023-02-27T07:15:27.362Z,-1.30
2023-02-27T07:17:56.874Z,-1.00
2023-02-27T07:20:23.799Z,-1.00
2023-02-27T07:22:51.119Z,-0.80
2023-02-27T07:25:18.089Z,-0.70
2023-02-27T07:27:46.052Z,-0.50
2023-02-27T07:30:16.363Z,-0.60
2023-02-27T07:32:43.657Z,-0.50
2023-02-27T07:35:17.537Z,-0.30
2023-02-27T07:37:46.894Z,-0.30
2023-02-27T07:40:14.843Z,-0.40
2023-02-27T07:42:45.268Z,-0.50
2023-02-27T07:45:12.428Z,-0.20
2023-02-27T07:47:39.559Z,-0.20
2023-02-27T07:50:09.978Z,-0.40
2023-02-27T07:52:37.244Z,-0.50
2023-02-27T07:55:07.918Z,-0.30
2023-02-27T07:57:37.382Z,-0.20
2023-02-27T08:00:10.718Z,-0.40
2023-02-27T08:02:39.398Z,-0.10
2023-02-27T08:05:08.187Z,-0.10
2023-02-27T08:07:36.633Z,0.20
2023-02-27T08:10:07.881Z,0.10
2023-02-27T08:12:35.137Z,0.10
2023-02-27T08:15:02.221Z,-0.10
2023-02-27T08:17:29.433Z,0.20
2023-02-27T08:19:56.510Z,0.10
2023-02-27T08:22:23.499Z,0.10
2023-02-27T08:24:50.549Z,0.00
2023-02-27T08:27:17.638Z,-0.10
2023-02-27T08:29:47.849Z,0.00
2023-02-27T08:32:16.014Z,0.30
2023-02-27T08:34:42.994Z,0.30
2023-02-27T08:37:11.775Z,0.10
2023-02-27T08:39:39.025Z,0.30
2023-02-27T08:42:07.312Z,0.30
2023-02-27T08:44:34.596Z,0.20
2023-02-27T08:47:01.956Z,0.40
2023-02-27T08:49:29.146Z,0.70
2023-02-27T08:51:56.088Z,0.50
2023-02-27T08:57:08.673Z,0.80
2023-02-27T08:59:35.943Z,0.90
2023-02-27T09:02:04.121Z,0.90
2023-02-27T09:04:31.366Z,0.80
2023-02-27T09:06:58.477Z,1.00
2023-02-27T09:09:28.116Z,1.50
2023-02-27T09:11:56.081Z,1.50
2023-02-27T09:14:24.224Z,1.60
2023-02-27T09:16:52.380Z,1.80
2023-02-27T09:22:23.525Z,1.90
2023-02-27T09:24:51.091Z,1.80
2023-02-27T09:27:19.746Z,1.50
2023-02-27T09:29:56.515Z,1.80
2023-02-27T09:32:25.833Z,1.90
2023-02-27T09:34:54.683Z,2.10
2023-02-27T09:37:25.911Z,2.50
2023-02-27T09:39:58.638Z,2.20
2023-02-27T09:42:48.102Z,2.60
2023-02-27T09:45:33.648Z,2.70
2023-02-27T09:48:39.100Z,2.70
2023-02-27T09:51:13.044Z,2.70
2023-02-27T09:53:51.266Z,2.90
2023-02-27T09:56:53.105Z,3.00
2023-02-27T09:59:56.802Z,3.00
2023-02-27T10:02:39.234Z,3.20
2023-02-27T10:05:31.124Z,2.80
2023-02-27T10:08:26.511Z,3.10
2023-02-27T10:11:10.078Z,3.10
2023-02-27T10:14:29.608Z,3.30
2023-02-27T10:17:02.262Z,3.50
2023-02-27T10:19:37.113Z,3.70
2023-02-27T10:22:15.036Z,3.60
2023-02-27T10:25:29.744Z,3.80
2023-02-27T10:28:14.137Z,3.20
2023-02-27T10:30:50.734Z,3.40
2023-02-27T10:33:38.388Z,3.50
2023-02-27T10:36:23.599Z,3.70
2023-02-27T10:39:07.104Z,3.80
2023-02-27T10:41:38.137Z,4.10
2023-02-27T10:44:05.699Z,4.20
2023-02-27T10:46:38.671Z,4.30
2023-02-27T10:49:23.793Z,4.50
2023-02-27T10:52:16.652Z,4.60
2023-02-27T10:54:46.188Z,4.70
2023-02-27T10:57:40.893Z,5.00
2023-02-27T11:00:34.767Z,4.90
2023-02-27T11:03:06.576Z,4.50
2023-02-27T11:05:37.869Z,4.10
2023-02-27T11:08:27.541Z,5.00
2023-02-27T11:11:12.082Z,5.40
2023-02-27T11:13:45.863Z,5.10
2023-02-27T11:16:24.107Z,5.50
2023-02-27T11:18:57.993Z,5.80
2023-02-27T11:21:29.648Z,5.80
2023-02-27T11:24:19.077Z,6.00
2023-02-27T11:27:03.682Z,6.40
2023-02-27T11:29:31.866Z,6.50
2023-02-27T11:32:11.470Z,5.30
2023-02-27T11:34:52.292Z,5.60
2023-02-27T11:37:31.267Z,5.70
2023-02-27T11:40:25.349Z,6.40
2023-02-27T11:43:03.956Z,5.20
2023-02-27T11:46:05.316Z,5.40
2023-02-27T11:49:06.433Z,6.60
2023-02-27T11:51:54.995Z,6.00
2023-02-27T11:54:48.166Z,6.00
2023-02-27T11:57:33.256Z,6.60
2023-02-27T12:00:41.828Z,6.80
2023-02-27T12:03:30.766Z,6.30
2023-02-27T12:06:07.049Z,6.30
2023-02-27T12:09:11.447Z,6.30
2023-02-27T12:11:46.813Z,6.10
2023-02-27T12:14:52.498Z,6.00
2023-02-27T12:17:39.963Z,6.50
2023-02-27T12:20:29.110Z,6.90
2023-02-27T12:22:56.534Z,6.50
2023-02-27T12:25:40.973Z,6.10
2023-02-27T12:28:51.005Z,6.50
2023-02-27T12:31:23.778Z,5.80
2023-02-27T12:34:02.829Z,6.50
2023-02-27T12:36:30.619Z,7.10
2023-02-27T12:39:00.719Z,8.10
2023-02-27T12:41:55.608Z,7.80
2023-02-27T12:45:26.770Z,8.10
2023-02-27T12:48:59.076Z,6.70
2023-02-27T12:52:20.608Z,5.80
2023-02-27T12:55:21.349Z,6.50
2023-02-27T12:58:22.327Z,7.40
2023-02-27T13:01:22.663Z,8.50
2023-02-27T13:04:27.597Z,8.70
2023-02-27T13:07:53.262Z,8.40
2023-02-27T13:10:33.279Z,8.20
2023-02-27T13:13:34.123Z,8.00
2023-02-27T13:16:18.488Z,7.40
2023-02-27T13:19:21.542Z,8.30
2023-02-27T13:22:06.322Z,8.70
2023-02-27T13:24:35.642Z,7.40
2023-02-27T13:27:30.456Z,7.00
2023-02-27T13:30:21.453Z,6.00
2023-02-27T13:33:33.265Z,5.40
2023-02-27T13:36:31.401Z,5.80
2023-02-27T13:39:01.700Z,6.00
2023-02-27T13:41:28.804Z,5.60
2023-02-27T13:44:20.630Z,5.70
2023-02-27T13:46:47.988Z,5.70
2023-02-27T13:49:30.197Z,7.70
2023-02-27T13:52:12.161Z,7.40
2023-02-27T13:54:48.421Z,6.90
2023-02-27T13:57:30.735Z,7.00
2023-02-27T14:00:26.687Z,6.90
2023-02-27T14:03:19.017Z,7.00
2023-02-27T14:05:55.820Z,7.60
2023-02-27T14:08:39.406Z,7.40
2023-02-27T14:11:30.726Z,7.30
2023-02-27T14:14:12.549Z,7.10
2023-02-27T14:16:39.962Z,6.90
2023-02-27T14:19:18.771Z,6.60
2023-02-27T14:22:01.164Z,6.50
2023-02-27T14:25:57.980Z,6.60
2023-02-27T14:28:31.114Z,6.60
2023-02-27T14:31:33.548Z,6.40
2023-02-27T14:34:10.955Z,6.60
2023-02-27T14:36:52.550Z,6.40
2023-02-27T14:39:53.719Z,6.70
2023-02-27T14:43:17.150Z,6.50
2023-02-27T14:45:53.167Z,6.00
2023-02-27T14:48:39.311Z,5.70
2023-02-27T14:51:23.618Z,5.80
2023-02-27T14:54:20.899Z,5.80
2023-02-27T14:57:07.746Z,5.60
2023-02-27T14:59:52.842Z,5.50
2023-02-27T15:02:43.283Z,5.40
2023-02-27T15:05:35.050Z,5.60
2023-02-27T15:08:18.778Z,5.50
2023-02-27T15:10:48.974Z,5.50
2023-02-27T15:13:46.309Z,5.50
2023-02-27T15:16:55.975Z,5.60
2023-02-27T15:19:40.215Z,5.50
2023-02-27T15:22:38.468Z,5.40
2023-02-27T15:25:27.634Z,5.70
2023-02-27T15:28:22.292Z,5.50
2023-02-27T15:30:59.380Z,5.30
2023-02-27T15:34:05.355Z,5.50
2023-02-27T15:36:39.288Z,5.40
2023-02-27T15:39:15.510Z,5.30
2023-02-27T15:42:05.103Z,5.40
2023-02-27T15:44:48.411Z,5.30
2023-02-27T15:47:32.629Z,5.20
2023-02-27T15:50:19.960Z,5.30
2023-02-27T15:53:12.665Z,5.20
2023-02-27T15:56:03.813Z,5.10
2023-02-27T15:58:50.081Z,5.20
2023-02-27T16:01:23.449Z,5.30
2023-02-27T16:04:05.830Z,5.20
2023-02-27T16:06:40.810Z,4.90
2023-02-27T16:09:30.705Z,4.90
2023-02-27T16:12:28.497Z,5.10
2023-02-27T16:15:20.660Z,5.10
2023-02-27T16:18:36.089Z,5.10
2023-02-27T16:21:26.749Z,5.00
2023-02-27T16:23:56.416Z,5.00
2023-02-27T16:26:38.762Z,5.20
2023-02-27T16:29:20.834Z,5.20
2023-02-27T16:31:55.803Z,5.20
2023-02-27T16:34:45.770Z,4.90
2023-02-27T16:37:39.873Z,4.80
2023-02-27T16:40:27.033Z,4.60
2023-02-27T16:42:54.257Z,5.00
2023-02-27T16:45:28.088Z,4.80
2023-02-27T16:48:01.577Z,5.00
2023-02-27T16:50:57.841Z,5.00
2023-02-27T16:53:27.689Z,5.20
2023-02-27T16:56:04.240Z,5.20
2023-02-27T16:58:37.528Z,5.30
2023-02-27T17:01:05.679Z,5.20
2023-02-27T17:03:33.264Z,5.20
2023-02-27T17:06:02.681Z,5.10
2023-02-27T17:08:34.432Z,5.10
2023-02-27T17:11:05.574Z,5.00
2023-02-27T17:13:37.005Z,4.80
2023-02-27T17:16:09.319Z,4.70
2023-02-27T17:18:37.325Z,4.70
2023-02-27T17:21:08.079Z,4.50
2023-02-27T17:23:35.974Z,4.50
2023-02-27T17:26:08.490Z,4.60
2023-02-27T17:28:35.531Z,4.60
2023-02-27T17:31:12.064Z,4.20
2023-02-27T17:33:39.137Z,4.10
2023-02-27T17:36:10.207Z,4.40
2023-02-27T17:38:37.881Z,4.30
2023-02-27T17:41:10.966Z,4.40
2023-02-27T17:43:39.801Z,4.70
2023-02-27T17:46:10.543Z,4.50
2023-02-27T17:48:39.072Z,4.60
2023-02-27T17:51:13.956Z,4.50
2023-02-27T17:53:45.146Z,4.50
2023-02-27T17:56:14.092Z,4.50
2023-02-27T17:58:41.595Z,4.60
2023-02-27T18:01:17.523Z,4.40
2023-02-27T18:03:44.414Z,4.60
2023-02-27T18:06:14.715Z,4.40
2023-02-27T18:08:42.485Z,4.30
2023-02-27T18:11:16.449Z,4.40
2023-02-27T18:13:44.887Z,4.40
2023-02-27T18:16:12.843Z,4.50
2023-02-27T18:18:42.493Z,4.30
2023-02-27T18:21:21.216Z,4.30
2023-02-27T18:23:50.060Z,4.20
2023-02-27T18:26:30.490Z,4.20
2023-02-27T18:29:07.471Z,4.20
2023-02-27T18:31:45.114Z,4.30
2023-02-27T18:34:14.555Z,4.40
2023-02-27T18:36:42.286Z,4.30
2023-02-27T18:39:14.162Z,4.10
2023-02-27T18:41:41.835Z,4.30
2023-02-27T18:44:11.611Z,4.10
2023-02-27T18:46:41.354Z,4.30
2023-02-27T18:49:09.262Z,4.20
2023-02-27T18:51:36.824Z,4.40
2023-02-27T18:54:08.717Z,4.50
2023-02-27T18:56:35.778Z,4.50
2023-02-27T18:59:06.375Z,4.60
2023-02-27T19:01:37.969Z,4.60
2023-02-27T19:04:08.178Z,4.40
2023-02-27T19:06:43.354Z,4.20
2023-02-27T19:09:16.248Z,4.20
2023-02-27T19:11:46.895Z,4.10
2023-02-27T19:14:16.266Z,4.00
2023-02-27T19:16:46.048Z,4.10
2023-02-27T19:19:15.780Z,4.00
2023-02-27T19:21:43.334Z,4.00
2023-02-27T19:24:16.878Z,3.90
2023-02-27T19:26:43.813Z,4.10
2023-02-27T19:29:14.164Z,4.10
2023-02-27T19:31:41.460Z,4.00
2023-02-27T19:34:08.358Z,3.80
2023-02-27T19:36:35.280Z,3.80
2023-02-27T19:39:03.509Z,3.80
2023-02-27T19:41:33.353Z,3.90
2023-02-27T19:44:02.370Z,3.80
2023-02-27T19:46:34.209Z,3.90
2023-02-27T19:49:06.343Z,4.00
2023-02-27T19:51:34.305Z,4.00
2023-02-27T19:54:01.582Z,3.90
2023-02-27T19:56:29.958Z,4.10
2023-02-27T19:58:57.862Z,4.00
2023-02-27T20:01:33.730Z,4.00
2023-02-27T20:04:03.445Z,4.10
2023-02-27T20:06:42.145Z,4.00
2023-02-27T20:09:18.223Z,4.00
2023-02-27T20:11:48.544Z,4.00
2023-02-27T20:14:16.737Z,4.00
2023-02-27T20:16:45.421Z,3.80
2023-02-27T20:19:18.547Z,3.90
2023-02-27T20:21:47.314Z,3.90
2023-02-27T20:24:16.329Z,3.80
2023-02-27T20:26:50.351Z,3.90
2023-02-27T20:29:23.683Z,3.90
2023-02-27T20:31:53.295Z,3.60
2023-02-27T20:34:26.335Z,3.80
2023-02-27T20:36:56.034Z,3.90
2023-02-27T20:39:24.730Z,3.90
2023-02-27T20:41:55.527Z,4.00
2023-02-27T20:44:25.608Z,3.70
2023-02-27T20:46:52.896Z,3.70
2023-02-27T20:49:19.967Z,3.70
2023-02-27T20:51:48.153Z,3.50
2023-02-27T20:54:22.674Z,3.50
2023-02-27T20:56:54.576Z,3.60
2023-02-27T20:59:27.727Z,3.50
2023-02-27T21:02:01.681Z,3.50
2023-02-27T21:04:43.270Z,3.50
2023-02-27T21:07:14.546Z,3.60
2023-02-27T21:09:42.149Z,3.50
2023-02-27T21:12:19.880Z,3.40
2023-02-27T21:14:48.567Z,3.40
2023-02-27T21:17:26.175Z,3.50
2023-02-27T21:19:53.161Z,3.60
2023-02-27T21:22:26.016Z,3.50
2023-02-27T21:24:53.733Z,3.60
2023-02-27T21:27:21.453Z,3.80
2023-02-27T21:29:53.791Z,3.70
2023-02-27T21:32:20.775Z,3.60
2023-02-27T21:34:47.704Z,3.50
2023-02-27T21:37:14.894Z,3.60
2023-02-27T21:39:49.345Z,3.70
2023-02-27T21:42:16.470Z,3.50
2023-02-27T21:44:47.460Z,3.60
2023-02-27T21:47:14.481Z,3.70
2023-02-27T21:49:41.609Z,3.50
2023-02-27T21:52:08.657Z,3.60
2023-02-27T21:54:39.253Z,3.60
2023-02-27T21:57:06.386Z,3.60
2023-02-27T21:59:35.801Z,3.60
2023-02-27T22:02:02.903Z,3.50
2023-02-27T22:04:30.198Z,3.20
2023-02-27T22:06:57.126Z,3.20
2023-02-27T22:09:24.090Z,3.20
2023-02-27T22:11:51.269Z,3.30
2023-02-27T22:14:18.687Z,3.40
2023-02-27T22:16:45.739Z,3.40
2023-02-27T22:19:25.689Z,3.30
2023-02-27T22:21:55.382Z,3.10
2023-02-27T22:24:22.474Z,3.20
2023-02-27T22:26:50.236Z,3.10
2023-02-27T22:29:17.616Z,2.90
2023-02-27T22:31:47.582Z,3.00
2023-02-27T22:34:19.284Z,3.00
2023-02-27T22:39:36.039Z,2.90
2023-02-27T22:42:03.328Z,3.00
2023-02-27T22:44:30.419Z,3.00
2023-02-27T22:46:57.355Z,3.00
2023-02-27T22:49:24.802Z,3.00
2023-02-27T22:51:53.790Z,2.90
2023-02-27T22:54:23.292Z,3.10
2023-02-27T22:56:56.923Z,3.00
2023-02-27T22:59:28.269Z,3.10
2023-02-27T23:01:55.274Z,3.20
2023-02-27T23:04:24.994Z,3.40
2023-02-27T23:06:55.790Z,3.50
2023-02-27T23:09:26.053Z,3.30
2023-02-27T23:11:54.419Z,3.40
2023-02-27T23:14:25.362Z,3.60
2023-02-27T23:16:56.677Z,3.30
2023-02-27T23:19:23.599Z,3.40
2023-02-27T23:21:50.624Z,3.40
2023-02-27T23:24:20.193Z,3.30
2023-02-27T23:26:52.160Z,3.10
2023-02-27T23:29:21.283Z,3.10
2023-02-27T23:31:48.402Z,2.90
2023-02-27T23:34:17.861Z,3.00
2023-02-27T23:36:45.091Z,3.10
2023-02-27T23:39:12.226Z,3.10
2023-02-27T23:41:39.313Z,3.10
2023-02-27T23:44:06.580Z,3.10
2023-02-27T23:46:39.586Z,3.40
2023-02-27T23:49:07.701Z,3.50
2023-02-27T23:51:35.434Z,3.50
2023-02-27T23:54:02.988Z,3.30
2023-02-27T23:56:31.172Z,3.30
2023-02-27T23:59:06.202Z,3.20
